sensor_id;sensor_type;location;lat;lon;timestamp;temperature;humidity
1992;DHT22;997;48.448;8.924;2023-03-14T04:03:49;9.10;99.90
1992;DHT22;997;48.448;8.924;2023-03-14T04:06:14;9.10;99.90
1992;DHT22;997;48.448;8.924;2023-03-14T04:08:40;9.00;99.90
1992;DHT22;997;48.448;8.924;2023-03-14T04:11:07;9.00;99.90
1992;DHT22;997;48.448;8.924;2023-03-14T04:13:32;9.00;99.90
1992;DHT22;997;48.448;8.924;2023-03-14T09:46:09;11.10;99.90
1992;DHT22;997;48.448;8.924;2023-03-14T09:48:36;11.10;99.90
1992;DHT22;997;48.448;8.924;2023-03-14T09:51:12;11.20;99.90
1992;DHT22;997;48.448;8.924;2023-03-14T09:53:49;11.20;99.90
1992;DHT22;997;48.448;8.924;2023-03-14T09:56:26;11.30;99.90
1992;DHT22;997;48.448;8.924;2023-03-14T09:58:58;11.40;99.90
1992;DHT22;997;48.448;8.924;2023-03-14T10:01:28;11.40;99.90
1992;DHT22;997;48.448;8.924;2023-03-14T10:03:56;11.50;99.90
1992;DHT22;997;48.448;8.924;2023-03-14T10:06:26;11.40;99.90
1992;DHT22;997;48.448;8.924;2023-03-14T10:08:54;11.40;99.90
1992;DHT22;997;48.448;8.924;2023-03-14T10:11:20;11.50;99.90
1992;DHT22;997;48.448;8.924;2023-03-14T10:14:11;11.60;99.90
1992;DHT22;997;48.448;8.924;2023-03-14T10:16:44;11.70;99.90
1992;DHT22;997;48.448;8.924;2023-03-14T10:19:23;11.70;99.90
1992;DHT22;997;48.448;8.924;2023-03-14T10:21:53;11.80;99.90
1992;DHT22;997;48.448;8.924;2023-03-14T10:24:28;11.80;99.90
1992;DHT22;997;48.448;8.924;2023-03-14T10:27:05;11.70;99.90
1992;DHT22;997;48.448;8.924;2023-03-14T10:29:33;11.60;99.90
1992;DHT22;997;48.448;8.924;2023-03-14T10:32:02;11.60;99.90
1992;DHT22;997;48.448;8.924;2023-03-14T10:34:34;11.60;99.90
1992;DHT22;997;48.448;8.924;2023-03-14T10:37:24;11.70;99.90
1992;DHT22;997;48.448;8.924;2023-03-14T10:39:53;11.70;99.90
1992;DHT22;997;48.448;8.924;2023-03-14T10:42:28;11.80;99.90
1992;DHT22;997;48.448;8.924;2023-03-14T10:44:57;11.90;99.90
1992;DHT22;997;48.448;8.924;2023-03-14T10:47:26;12.00;99.90
1992;DHT22;997;48.448;8.924;2023-03-14T10:49:53;12.10;99.90
1992;DHT22;997;48.448;8.924;2023-03-14T10:52:26;12.00;99.90
1992;DHT22;997;48.448;8.924;2023-03-14T10:55:01;12.00;99.90
1992;DHT22;997;48.448;8.924;2023-03-14T10:57:27;11.70;99.90
1992;DHT22;997;48.448;8.924;2023-03-14T10:59:53;11.50;99.90
1992;DHT22;997;48.448;8.924;2023-03-14T11:11:27;11.60;99.90
1992;DHT22;997;48.448;8.924;2023-03-14T11:22:23;11.10;99.90
1992;DHT22;997;48.448;8.924;2023-03-14T11:30:24;10.70;99.90
1992;DHT22;997;48.448;8.924;2023-03-14T11:35:47;10.30;99.90
1992;DHT22;997;48.448;8.924;2023-03-14T11:40:48;10.40;99.90
1992;DHT22;997;48.448;8.924;2023-03-14T11:43:24;10.60;99.90
1992;DHT22;997;48.448;8.924;2023-03-14T11:45:56;10.70;99.90
1992;DHT22;997;48.448;8.924;2023-03-14T11:48:38;10.70;99.90
1992;DHT22;997;48.448;8.924;2023-03-14T11:51:29;10.70;99.90
1992;DHT22;997;48.448;8.924;2023-03-14T11:54:16;10.60;99.90
1992;DHT22;997;48.448;8.924;2023-03-14T11:57:09;10.60;99.90
1992;DHT22;997;48.448;8.924;2023-03-14T11:59:41;10.50;99.90
1992;DHT22;997;48.448;8.924;2023-03-14T12:05:21;10.30;99.90
1992;DHT22;997;48.448;8.924;2023-03-14T12:08:15;10.20;99.90
1992;DHT22;997;48.448;8.924;2023-03-14T12:10:58;10.10;99.90
1992;DHT22;997;48.448;8.924;2023-03-14T12:13:36;9.90;99.90
1992;DHT22;997;48.448;8.924;2023-03-14T12:19:30;8.60;99.90
1992;DHT22;997;48.448;8.924;2023-03-14T12:22:06;8.50;99.90
1992;DHT22;997;48.448;8.924;2023-03-14T12:24:35;8.50;99.90
1992;DHT22;997;48.448;8.924;2023-03-14T12:27:05;8.40;99.90
1992;DHT22;997;48.448;8.924;2023-03-14T12:29:32;8.40;99.90
1992;DHT22;997;48.448;8.924;2023-03-14T12:34:31;8.40;99.90
1992;DHT22;997;48.448;8.924;2023-03-14T12:37:14;8.60;99.90
1992;DHT22;997;48.448;8.924;2023-03-14T12:39:59;8.60;99.90
1992;DHT22;997;48.448;8.924;2023-03-14T12:48:15;9.00;99.90
1992;DHT22;997;48.448;8.924;2023-03-14T12:50:46;9.20;99.90
1992;DHT22;997;48.448;8.924;2023-03-14T13:07:34;8.60;99.90
1992;DHT22;997;48.448;8.924;2023-03-14T13:12:57;8.30;99.90
1992;DHT22;997;48.448;8.924;2023-03-14T13:15:38;8.40;99.90
1992;DHT22;997;48.448;8.924;2023-03-14T13:20:54;8.20;99.90
1992;DHT22;997;48.448;8.924;2023-03-14T13:23:26;8.10;99.90
1992;DHT22;997;48.448;8.924;2023-03-14T13:25:52;8.00;99.90
1992;DHT22;997;48.448;8.924;2023-03-14T13:28:18;7.90;99.90
1992;DHT22;997;48.448;8.924;2023-03-14T13:30:46;7.90;99.90
1992;DHT22;997;48.448;8.924;2023-03-14T13:33:22;7.90;99.90
1992;DHT22;997;48.448;8.924;2023-03-14T13:38:22;7.80;99.90
1992;DHT22;997;48.448;8.924;2023-03-14T13:40:50;7.70;99.90
1992;DHT22;997;48.448;8.924;2023-03-14T13:43:31;7.60;99.90
1992;DHT22;997;48.448;8.924;2023-03-14T13:48:45;7.60;99.90
1992;DHT22;997;48.448;8.924;2023-03-14T13:51:13;7.60;99.90
1992;DHT22;997;48.448;8.924;2023-03-14T13:53:48;7.60;99.90
1992;DHT22;997;48.448;8.924;2023-03-14T13:56:16;7.60;99.90
1992;DHT22;997;48.448;8.924;2023-03-14T13:58:42;7.70;99.90
1992;DHT22;997;48.448;8.924;2023-03-14T14:01:35;7.80;99.90
1992;DHT22;997;48.448;8.924;2023-03-14T14:04:07;7.80;99.90
1992;DHT22;997;48.448;8.924;2023-03-14T14:06:38;7.90;99.90
1992;DHT22;997;48.448;8.924;2023-03-14T14:09:14;7.90;99.90
1992;DHT22;997;48.448;8.924;2023-03-14T14:12:03;7.90;99.90
1992;DHT22;997;48.448;8.924;2023-03-14T14:17:00;7.80;99.90
1992;DHT22;997;48.448;8.924;2023-03-14T14:19:28;7.80;99.90
1992;DHT22;997;48.448;8.924;2023-03-14T14:21:55;7.80;99.90
1992;DHT22;997;48.448;8.924;2023-03-14T14:24:24;7.80;99.90
1992;DHT22;997;48.448;8.924;2023-03-14T14:26:58;7.70;99.90
1992;DHT22;997;48.448;8.924;2023-03-14T14:29:32;7.80;99.90
1992;DHT22;997;48.448;8.924;2023-03-14T14:37:23;7.90;99.90
1992;DHT22;997;48.448;8.924;2023-03-14T14:39:53;7.90;99.90
1992;DHT22;997;48.448;8.924;2023-03-14T14:42:21;7.90;99.90
1992;DHT22;997;48.448;8.924;2023-03-14T14:44:50;7.80;99.90
1992;DHT22;997;48.448;8.924;2023-03-14T14:47:19;7.80;99.90
1992;DHT22;997;48.448;8.924;2023-03-14T14:49:47;8.00;99.90
1992;DHT22;997;48.448;8.924;2023-03-14T14:52:14;8.30;99.90
1992;DHT22;997;48.448;8.924;2023-03-14T14:57:22;8.50;99.90
1992;DHT22;997;48.448;8.924;2023-03-14T14:59:49;8.60;99.90
1992;DHT22;997;48.448;8.924;2023-03-14T15:02:36;8.60;99.90
1992;DHT22;997;48.448;8.924;2023-03-14T15:05:08;8.60;99.90
1992;DHT22;997;48.448;8.924;2023-03-14T15:07:37;8.50;99.90
1992;DHT22;997;48.448;8.924;2023-03-14T15:10:02;8.40;99.90
1992;DHT22;997;48.448;8.924;2023-03-14T15:12:28;8.40;99.90
1992;DHT22;997;48.448;8.924;2023-03-14T15:14:54;8.30;99.90
1992;DHT22;997;48.448;8.924;2023-03-14T15:17:23;8.20;99.90
1992;DHT22;997;48.448;8.924;2023-03-14T15:19:49;8.30;99.90
1992;DHT22;997;48.448;8.924;2023-03-14T15:22:15;8.30;99.90
1992;DHT22;997;48.448;8.924;2023-03-14T16:52:45;7.70;99.90
1992;DHT22;997;48.448;8.924;2023-03-14T16:55:12;7.70;99.90
1992;DHT22;997;48.448;8.924;2023-03-14T16:57:38;7.70;99.90
1992;DHT22;997;48.448;8.924;2023-03-14T17:00:04;7.80;99.90
1992;DHT22;997;48.448;8.924;2023-03-14T17:02:29;7.80;99.90
1992;DHT22;997;48.448;8.924;2023-03-14T17:04:55;7.90;99.90
1992;DHT22;997;48.448;8.924;2023-03-14T17:07:21;8.00;99.90
1992;DHT22;997;48.448;8.924;2023-03-14T17:09:47;7.90;99.90
1992;DHT22;997;48.448;8.924;2023-03-14T17:12:13;7.80;99.90
1992;DHT22;997;48.448;8.924;2023-03-14T17:14:38;7.90;99.90
1992;DHT22;997;48.448;8.924;2023-03-14T17:17:04;7.90;99.90
1992;DHT22;997;48.448;8.924;2023-03-14T17:19:29;7.80;99.90
1992;DHT22;997;48.448;8.924;2023-03-14T17:21:58;7.70;99.90
1992;DHT22;997;48.448;8.924;2023-03-14T17:24:24;7.50;99.90
1992;DHT22;997;48.448;8.924;2023-03-14T17:26:49;7.30;99.90
1992;DHT22;997;48.448;8.924;2023-03-14T17:29:15;7.10;99.90
1992;DHT22;997;48.448;8.924;2023-03-14T17:31:40;7.00;99.90
1992;DHT22;997;48.448;8.924;2023-03-14T17:34:07;6.80;99.90
1992;DHT22;997;48.448;8.924;2023-03-14T17:36:32;6.60;99.90
1992;DHT22;997;48.448;8.924;2023-03-14T17:38:58;6.40;99.90
1992;DHT22;997;48.448;8.924;2023-03-14T17:41:24;6.30;99.90
1992;DHT22;997;48.448;8.924;2023-03-14T17:43:49;6.30;99.90
1992;DHT22;997;48.448;8.924;2023-03-14T17:46:15;6.20;99.90
1992;DHT22;997;48.448;8.924;2023-03-14T17:48:46;6.30;99.90
1992;DHT22;997;48.448;8.924;2023-03-14T17:51:13;6.30;99.90
1992;DHT22;997;48.448;8.924;2023-03-14T17:53:39;6.10;99.90
1992;DHT22;997;48.448;8.924;2023-03-14T17:56:05;6.20;99.90
1992;DHT22;997;48.448;8.924;2023-03-14T17:58:31;6.20;99.90
1992;DHT22;997;48.448;8.924;2023-03-14T18:01:12;6.20;99.90
1992;DHT22;997;48.448;8.924;2023-03-14T18:03:38;6.20;99.90
1992;DHT22;997;48.448;8.924;2023-03-14T18:06:05;6.30;99.90
1992;DHT22;997;48.448;8.924;2023-03-14T18:08:31;6.30;99.90
1992;DHT22;997;48.448;8.924;2023-03-14T18:10:57;6.10;99.90
1992;DHT22;997;48.448;8.924;2023-03-14T18:13:23;6.00;99.90
1992;DHT22;997;48.448;8.924;2023-03-14T18:15:48;5.90;99.90
1992;DHT22;997;48.448;8.924;2023-03-14T18:18:14;6.00;99.90
1992;DHT22;997;48.448;8.924;2023-03-14T18:20:40;5.90;99.90
1992;DHT22;997;48.448;8.924;2023-03-14T18:23:05;5.80;99.90
1992;DHT22;997;48.448;8.924;2023-03-14T18:25:32;5.90;99.90
1992;DHT22;997;48.448;8.924;2023-03-14T18:27:57;5.80;99.90
1992;DHT22;997;48.448;8.924;2023-03-14T18:30:23;5.70;99.90
1992;DHT22;997;48.448;8.924;2023-03-14T18:32:49;5.50;99.90
1992;DHT22;997;48.448;8.924;2023-03-14T18:35:15;5.40;99.90
1992;DHT22;997;48.448;8.924;2023-03-14T18:37:41;5.40;99.90
1992;DHT22;997;48.448;8.924;2023-03-14T18:40:07;5.50;99.90
1992;DHT22;997;48.448;8.924;2023-03-14T18:42:34;5.40;99.90
1992;DHT22;997;48.448;8.924;2023-03-14T18:45:00;5.40;99.90
1992;DHT22;997;48.448;8.924;2023-03-14T18:47:26;5.40;99.90
1992;DHT22;997;48.448;8.924;2023-03-14T18:49:51;5.40;99.90
1992;DHT22;997;48.448;8.924;2023-03-14T18:52:17;5.50;99.90
1992;DHT22;997;48.448;8.924;2023-03-14T18:54:43;5.50;99.90
1992;DHT22;997;48.448;8.924;2023-03-14T18:57:08;5.60;99.90
1992;DHT22;997;48.448;8.924;2023-03-14T18:59:34;5.50;99.90
1992;DHT22;997;48.448;8.924;2023-03-14T19:02:00;5.50;99.90
1992;DHT22;997;48.448;8.924;2023-03-14T19:04:25;5.40;99.90
1992;DHT22;997;48.448;8.924;2023-03-14T19:06:51;5.50;99.90
1992;DHT22;997;48.448;8.924;2023-03-14T19:09:18;5.60;99.90
1992;DHT22;997;48.448;8.924;2023-03-14T19:11:44;5.50;99.90
1992;DHT22;997;48.448;8.924;2023-03-14T19:14:10;5.50;99.90
1992;DHT22;997;48.448;8.924;2023-03-14T19:16:36;5.60;99.90
1992;DHT22;997;48.448;8.924;2023-03-14T19:19:02;5.50;99.90
1992;DHT22;997;48.448;8.924;2023-03-14T19:21:33;5.50;99.90
1992;DHT22;997;48.448;8.924;2023-03-14T19:24:00;5.50;99.90
1992;DHT22;997;48.448;8.924;2023-03-14T19:26:26;5.50;99.90
1992;DHT22;997;48.448;8.924;2023-03-14T19:28:54;5.50;99.90
1992;DHT22;997;48.448;8.924;2023-03-14T19:31:20;5.60;99.90
1992;DHT22;997;48.448;8.924;2023-03-14T19:33:46;5.70;99.90
1992;DHT22;997;48.448;8.924;2023-03-14T19:36:33;5.70;99.90
1992;DHT22;997;48.448;8.924;2023-03-14T19:39:00;5.90;99.90
1992;DHT22;997;48.448;8.924;2023-03-14T19:41:26;6.00;99.90
1992;DHT22;997;48.448;8.924;2023-03-14T19:43:53;6.00;99.90
1992;DHT22;997;48.448;8.924;2023-03-14T19:46:19;6.00;99.90
1992;DHT22;997;48.448;8.924;2023-03-14T19:48:46;6.10;99.90
1992;DHT22;997;48.448;8.924;2023-03-14T19:51:14;6.00;99.90
1992;DHT22;997;48.448;8.924;2023-03-14T19:53:40;6.00;99.90
1992;DHT22;997;48.448;8.924;2023-03-14T19:56:07;6.00;99.90
1992;DHT22;997;48.448;8.924;2023-03-14T19:58:33;6.00;99.90
1992;DHT22;997;48.448;8.924;2023-03-14T20:00:59;6.00;99.90
1992;DHT22;997;48.448;8.924;2023-03-14T20:03:25;6.10;99.90
1992;DHT22;997;48.448;8.924;2023-03-14T20:05:52;6.10;99.90
1992;DHT22;997;48.448;8.924;2023-03-14T20:08:19;6.10;99.90
1992;DHT22;997;48.448;8.924;2023-03-14T20:10:45;6.10;99.90
1992;DHT22;997;48.448;8.924;2023-03-14T20:13:11;6.00;99.90
1992;DHT22;997;48.448;8.924;2023-03-14T20:15:39;6.00;99.90
1992;DHT22;997;48.448;8.924;2023-03-14T20:18:05;6.00;99.90
1992;DHT22;997;48.448;8.924;2023-03-14T20:20:30;5.90;99.90
1992;DHT22;997;48.448;8.924;2023-03-14T20:22:56;5.90;99.90
1992;DHT22;997;48.448;8.924;2023-03-14T20:25:22;5.90;99.90
1992;DHT22;997;48.448;8.924;2023-03-14T20:27:49;5.80;99.90
1992;DHT22;997;48.448;8.924;2023-03-14T20:30:17;5.80;99.90
1992;DHT22;997;48.448;8.924;2023-03-14T20:32:47;5.90;99.90
1992;DHT22;997;48.448;8.924;2023-03-14T20:35:13;6.10;99.90
1992;DHT22;997;48.448;8.924;2023-03-14T20:37:54;6.00;99.90
1992;DHT22;997;48.448;8.924;2023-03-14T20:40:24;6.00;99.90
1992;DHT22;997;48.448;8.924;2023-03-14T20:42:53;5.90;99.90
1992;DHT22;997;48.448;8.924;2023-03-14T20:45:18;5.80;99.90
1992;DHT22;997;48.448;8.924;2023-03-14T20:47:44;5.80;99.90
1992;DHT22;997;48.448;8.924;2023-03-14T20:50:10;5.70;99.90
1992;DHT22;997;48.448;8.924;2023-03-14T20:52:37;5.70;99.90
1992;DHT22;997;48.448;8.924;2023-03-14T20:55:03;5.70;99.90
1992;DHT22;997;48.448;8.924;2023-03-14T20:57:29;5.80;99.90
1992;DHT22;997;48.448;8.924;2023-03-14T20:59:54;5.80;99.90
1992;DHT22;997;48.448;8.924;2023-03-14T21:02:20;5.90;99.90
1992;DHT22;997;48.448;8.924;2023-03-14T21:04:46;5.80;99.90
1992;DHT22;997;48.448;8.924;2023-03-14T21:07:12;5.80;99.90
1992;DHT22;997;48.448;8.924;2023-03-14T21:09:38;5.60;99.90
1992;DHT22;997;48.448;8.924;2023-03-14T21:12:04;5.50;99.90
1992;DHT22;997;48.448;8.924;2023-03-14T21:14:30;5.00;99.90
1992;DHT22;997;48.448;8.924;2023-03-14T21:16:55;4.80;99.90
1992;DHT22;997;48.448;8.924;2023-03-14T21:19:22;4.30;99.90
1992;DHT22;997;48.448;8.924;2023-03-14T21:21:58;4.00;99.90
1992;DHT22;997;48.448;8.924;2023-03-14T21:24:24;3.80;99.90
1992;DHT22;997;48.448;8.924;2023-03-14T21:26:51;3.60;99.90
1992;DHT22;997;48.448;8.924;2023-03-14T21:29:17;3.40;99.90
1992;DHT22;997;48.448;8.924;2023-03-14T21:31:43;3.50;99.90
1992;DHT22;997;48.448;8.924;2023-03-14T21:34:08;3.60;99.90
1992;DHT22;997;48.448;8.924;2023-03-14T21:36:34;3.80;99.90
1992;DHT22;997;48.448;8.924;2023-03-14T21:39:00;3.80;99.90
1992;DHT22;997;48.448;8.924;2023-03-14T21:41:26;3.90;99.90
1992;DHT22;997;48.448;8.924;2023-03-14T21:43:52;4.00;99.90
1992;DHT22;997;48.448;8.924;2023-03-14T21:46:18;4.10;99.90
1992;DHT22;997;48.448;8.924;2023-03-14T21:48:43;4.10;99.90
1992;DHT22;997;48.448;8.924;2023-03-14T21:51:09;4.30;99.90
1992;DHT22;997;48.448;8.924;2023-03-14T21:53:35;4.50;99.90
1992;DHT22;997;48.448;8.924;2023-03-14T21:56:01;4.60;99.90
1992;DHT22;997;48.448;8.924;2023-03-14T21:58:26;4.60;99.90
1992;DHT22;997;48.448;8.924;2023-03-14T22:00:52;4.70;99.90
1992;DHT22;997;48.448;8.924;2023-03-14T22:03:20;4.70;99.90
1992;DHT22;997;48.448;8.924;2023-03-14T22:05:47;4.80;99.90
1992;DHT22;997;48.448;8.924;2023-03-14T22:08:14;4.80;99.90
1992;DHT22;997;48.448;8.924;2023-03-14T22:10:49;4.80;99.90
1992;DHT22;997;48.448;8.924;2023-03-14T22:13:15;4.70;99.90
1992;DHT22;997;48.448;8.924;2023-03-14T22:15:42;4.80;99.90
1992;DHT22;997;48.448;8.924;2023-03-14T22:18:08;4.80;99.90
1992;DHT22;997;48.448;8.924;2023-03-14T22:20:33;4.80;99.90
1992;DHT22;997;48.448;8.924;2023-03-14T22:23:00;4.80;99.90
1992;DHT22;997;48.448;8.924;2023-03-14T22:25:25;4.70;99.90
1992;DHT22;997;48.448;8.924;2023-03-14T22:27:51;4.70;99.90
